Little Piney Creek (Missouri), Newburg (06932000)

StateMissouriLatestHigh (304 cfs)
RiverLittle Piney CreekRatingObservedEstimated
Updated2020-02-25 16:00 (38 minutes ago)Flood - The river is flooding. Obstacles can be treacherous or deadly. The river should be avoided at this stage for casual trips and definitely for the inexperienced. Trips should be attempted only with protective gear and equipment.Flood(none)545
Discharge304 cfs (median: 131 cfs)High - The river is high and potentially dangerous, especially for the young and / or inexperienced. Normal stream obstacles are sometimes difficult to navigate. Extended distances can be attempted, but canoe travel may not be advisable.High(none)273
Height3.26 feetGood - Conditions are ideal for a canoe or kayak. Boats typically will drag on fewer than one-quarter of riffles, if at all, and portages are unnecessary or rare. Normal float lengths can be attempted without a problem.Good(none)147
TrendFalling (rising over 24 hours)Low - River is low but can still be floated. Some riffles are okay but most come with significant dragging and might need a portage. Float lengths should be reduced to accommodate low flow, dragging, and portages.Low140108
USGSExternal icon USGS Site (External icon Google Maps)Poor - River is too low to float comfortably. Most or all riffles will drag or must be portaged and some obstacles (such as slick shelf rock) cause undue problems. Avoid the river at this stage for casual paddling trips.Poor(none)67

Trending Data

Plot Image

Trips for Little Piney Creek (Missouri), Newburg (06932000)

DateStartEndDistanceConditionDischargeHeightFishingDetails
Click for details2011-07-10 Newburg Gasconade River Total trip distance: 6.0 miles4.8 Low 114 2.32 None NoneNone Bowe, Michelle
Edmond, Brian
Edmond, Julian
Bowe, Michelle; Edmond, Brian; Edmond, Julian
This was Julian's first float trip. Many areas could have been attempted, especially with a kayak, but we were cautious.This was Julian's first float trip.  Many areas could have been attempted, especially with a kayak, but we were cautious. USGS Gauge Data:
Newburg (06932000)
Discharge: 114
Height: 2.32
<b>USGS Gauge Data:</b></br />Newburg (06932000)<br />Discharge: 114<br />Height: 2.32
Source: EdmondSource: Edmond

A total of 1 rows are displayed.

Trip Summary for Little Piney Creek (Missouri), Newburg (06932000)

Miles4.8
Trips1
People3
Dates1
Years1
Months1
Rows1
Sources1

Condition Descriptions

Fishing Conditions

Fish Species

Notes

Classic Trip List

The classic River Trips application is still available for use. It is updated with the new system using a data retrofit. It is no longer maintained. The original River Trips application is no longer updated (as of 1 Dec 2016) but can be checked for errors or for the condition of the data before it was converted to the new system.

Gauge Data Table

ObservationHeightDischargeMaximum
Discharge
Minimum
Discharge
Mean
Discharge
P05P10P20P25P50
(Median)
P75P80P90P95
2020-02-25 16:00 3.26 304 3160 (1930) 36 (1934) 236 48 57 77 80 131 187 263 410 933
2020-02-25 15:00 3.27 306 3160 (1930) 36 (1934) 236 48 57 77 80 131 187 263 410 933
2020-02-25 14:00 3.28 309 3160 (1930) 36 (1934) 236 48 57 77 80 131 187 263 410 933
2020-02-25 13:00 3.29 311 3160 (1930) 36 (1934) 236 48 57 77 80 131 187 263 410 933
2020-02-25 12:00 3.29 311 3160 (1930) 36 (1934) 236 48 57 77 80 131 187 263 410 933
2020-02-25 11:00 3.30 314 3160 (1930) 36 (1934) 236 48 57 77 80 131 187 263 410 933
2020-02-25 10:00 3.31 317 3160 (1930) 36 (1934) 236 48 57 77 80 131 187 263 410 933
2020-02-25 09:00 3.32 320 3160 (1930) 36 (1934) 236 48 57 77 80 131 187 263 410 933
2020-02-25 08:00 3.32 320 3160 (1930) 36 (1934) 236 48 57 77 80 131 187 263 410 933
2020-02-25 07:00 3.33 322 3160 (1930) 36 (1934) 236 48 57 77 80 131 187 263 410 933
2020-02-25 06:00 3.33 322 3160 (1930) 36 (1934) 236 48 57 77 80 131 187 263 410 933
2020-02-25 05:00 3.36 330 3160 (1930) 36 (1934) 236 48 57 77 80 131 187 263 410 933
2020-02-25 04:00 3.36 330 3160 (1930) 36 (1934) 236 48 57 77 80 131 187 263 410 933
2020-02-25 03:00 3.36 330 3160 (1930) 36 (1934) 236 48 57 77 80 131 187 263 410 933
2020-02-25 02:00 3.35 328 3160 (1930) 36 (1934) 236 48 57 77 80 131 187 263 410 933
2020-02-25 01:00 3.31 317 3160 (1930) 36 (1934) 236 48 57 77 80 131 187 263 410 933
2020-02-25 00:00 3.28 309 3160 (1930) 36 (1934) 236 48 57 77 80 131 187 263 410 933
2020-02-24 23:00 3.25 301 5570 (2018) 36 (1934) 282 49 59 73 77 120 208 256 374 1110
2020-02-24 22:00 3.25 301 5570 (2018) 36 (1934) 282 49 59 73 77 120 208 256 374 1110
2020-02-24 21:00 3.20 288 5570 (2018) 36 (1934) 282 49 59 73 77 120 208 256 374 1110
2020-02-24 20:00 3.19 286 5570 (2018) 36 (1934) 282 49 59 73 77 120 208 256 374 1110
2020-02-24 19:00 3.18 283 5570 (2018) 36 (1934) 282 49 59 73 77 120 208 256 374 1110
2020-02-24 18:00 3.20 288 5570 (2018) 36 (1934) 282 49 59 73 77 120 208 256 374 1110
2020-02-24 17:00 3.20 288 5570 (2018) 36 (1934) 282 49 59 73 77 120 208 256 374 1110
2020-02-24 16:00 3.21 291 5570 (2018) 36 (1934) 282 49 59 73 77 120 208 256 374 1110
2020-02-24 15:00 3.20 288 5570 (2018) 36 (1934) 282 49 59 73 77 120 208 256 374 1110
2020-02-24 14:00 3.22 293 5570 (2018) 36 (1934) 282 49 59 73 77 120 208 256 374 1110
2020-02-24 13:00 3.25 301 5570 (2018) 36 (1934) 282 49 59 73 77 120 208 256 374 1110
2020-02-24 12:00 3.27 306 5570 (2018) 36 (1934) 282 49 59 73 77 120 208 256 374 1110
2020-02-24 11:00 3.30 314 5570 (2018) 36 (1934) 282 49 59 73 77 120 208 256 374 1110
2020-02-24 10:00 3.30 314 5570 (2018) 36 (1934) 282 49 59 73 77 120 208 256 374 1110
2020-02-24 09:00 3.20 288 5570 (2018) 36 (1934) 282 49 59 73 77 120 208 256 374 1110
2020-02-24 08:00 2.95 229 5570 (2018) 36 (1934) 282 49 59 73 77 120 208 256 374 1110
2020-02-24 07:00 2.83 203 5570 (2018) 36 (1934) 282 49 59 73 77 120 208 256 374 1110
2020-02-24 06:00 2.77 191 5570 (2018) 36 (1934) 282 49 59 73 77 120 208 256 374 1110
2020-02-24 05:00 2.75 187 5570 (2018) 36 (1934) 282 49 59 73 77 120 208 256 374 1110
2020-02-24 04:00 2.69 175 5570 (2018) 36 (1934) 282 49 59 73 77 120 208 256 374 1110
2020-02-24 03:00 2.66 169 5570 (2018) 36 (1934) 282 49 59 73 77 120 208 256 374 1110
2020-02-24 02:00 2.62 162 5570 (2018) 36 (1934) 282 49 59 73 77 120 208 256 374 1110
2020-02-24 01:00 2.59 157 5570 (2018) 36 (1934) 282 49 59 73 77 120 208 256 374 1110
2020-02-24 00:00 2.57 153 5570 (2018) 36 (1934) 282 49 59 73 77 120 208 256 374 1110
2020-02-23 23:00 2.56 151 7850 (1985) 35 (1934) 278 48 52 71 78 113 212 286 382 653
2020-02-23 22:00 2.56 151 7850 (1985) 35 (1934) 278 48 52 71 78 113 212 286 382 653
2020-02-23 21:00 2.55 150 7850 (1985) 35 (1934) 278 48 52 71 78 113 212 286 382 653
2020-02-23 20:00 2.55 150 7850 (1985) 35 (1934) 278 48 52 71 78 113 212 286 382 653
2020-02-23 19:00 2.55 150 7850 (1985) 35 (1934) 278 48 52 71 78 113 212 286 382 653
2020-02-23 18:00 2.55 150 7850 (1985) 35 (1934) 278 48 52 71 78 113 212 286 382 653
2020-02-23 17:00 2.56 151 7850 (1985) 35 (1934) 278 48 52 71 78 113 212 286 382 653
2020-02-23 16:00 2.56 151 7850 (1985) 35 (1934) 278 48 52 71 78 113 212 286 382 653
2020-02-23 15:00 2.56 151 7850 (1985) 35 (1934) 278 48 52 71 78 113 212 286 382 653
2020-02-23 14:00 2.57 153 7850 (1985) 35 (1934) 278 48 52 71 78 113 212 286 382 653
2020-02-23 13:00 2.57 153 7850 (1985) 35 (1934) 278 48 52 71 78 113 212 286 382 653
2020-02-23 12:00 2.57 153 7850 (1985) 35 (1934) 278 48 52 71 78 113 212 286 382 653
2020-02-23 11:00 2.56 151 7850 (1985) 35 (1934) 278 48 52 71 78 113 212 286 382 653
2020-02-23 10:00 2.56 151 7850 (1985) 35 (1934) 278 48 52 71 78 113 212 286 382 653
2020-02-23 09:00 2.57 153 7850 (1985) 35 (1934) 278 48 52 71 78 113 212 286 382 653
2020-02-23 08:00 2.56 151 7850 (1985) 35 (1934) 278 48 52 71 78 113 212 286 382 653
2020-02-23 07:00 2.57 153 7850 (1985) 35 (1934) 278 48 52 71 78 113 212 286 382 653
2020-02-23 06:00 2.56 151 7850 (1985) 35 (1934) 278 48 52 71 78 113 212 286 382 653
2020-02-23 05:00 2.56 151 7850 (1985) 35 (1934) 278 48 52 71 78 113 212 286 382 653
2020-02-23 04:00 2.56 151 7850 (1985) 35 (1934) 278 48 52 71 78 113 212 286 382 653
2020-02-23 03:00 2.56 151 7850 (1985) 35 (1934) 278 48 52 71 78 113 212 286 382 653
2020-02-23 02:00 2.58 155 7850 (1985) 35 (1934) 278 48 52 71 78 113 212 286 382 653
2020-02-23 01:00 2.57 153 7850 (1985) 35 (1934) 278 48 52 71 78 113 212 286 382 653
2020-02-23 00:00 2.57 153 7850 (1985) 35 (1934) 278 48 52 71 78 113 212 286 382 653
2020-02-22 23:00 2.58 155 2550 (1975) 35 (1977) 213 47 50 72 79 118 233 262 436 660
2020-02-22 22:00 2.56 151 2550 (1975) 35 (1977) 213 47 50 72 79 118 233 262 436 660
2020-02-22 21:00 2.56 151 2550 (1975) 35 (1977) 213 47 50 72 79 118 233 262 436 660
2020-02-22 20:00 2.56 151 2550 (1975) 35 (1977) 213 47 50 72 79 118 233 262 436 660
2020-02-22 19:00 2.58 155 2550 (1975) 35 (1977) 213 47 50 72 79 118 233 262 436 660
2020-02-22 18:00 2.58 155 2550 (1975) 35 (1977) 213 47 50 72 79 118 233 262 436 660
2020-02-22 17:00 2.56 151 2550 (1975) 35 (1977) 213 47 50 72 79 118 233 262 436 660
2020-02-22 16:00 2.57 153 2550 (1975) 35 (1977) 213 47 50 72 79 118 233 262 436 660
2020-02-22 15:00 2.57 153 2550 (1975) 35 (1977) 213 47 50 72 79 118 233 262 436 660
2020-02-22 14:00 2.57 153 2550 (1975) 35 (1977) 213 47 50 72 79 118 233 262 436 660
2020-02-22 13:00 2.57 153 2550 (1975) 35 (1977) 213 47 50 72 79 118 233 262 436 660
2020-02-22 12:00 2.58 155 2550 (1975) 35 (1977) 213 47 50 72 79 118 233 262 436 660
2020-02-22 11:00 2.58 155 2550 (1975) 35 (1977) 213 47 50 72 79 118 233 262 436 660
2020-02-22 10:00 2.59 157 2550 (1975) 35 (1977) 213 47 50 72 79 118 233 262 436 660
2020-02-22 09:00 2.57 153 2550 (1975) 35 (1977) 213 47 50 72 79 118 233 262 436 660
2020-02-22 08:00 2.58 155 2550 (1975) 35 (1977) 213 47 50 72 79 118 233 262 436 660
2020-02-22 07:00 2.59 157 2550 (1975) 35 (1977) 213 47 50 72 79 118 233 262 436 660
2020-02-22 06:00 2.58 155 2550 (1975) 35 (1977) 213 47 50 72 79 118 233 262 436 660
2020-02-22 05:00 2.58 155 2550 (1975) 35 (1977) 213 47 50 72 79 118 233 262 436 660
2020-02-22 04:00 2.59 157 2550 (1975) 35 (1977) 213 47 50 72 79 118 233 262 436 660
2020-02-22 03:00 2.58 155 2550 (1975) 35 (1977) 213 47 50 72 79 118 233 262 436 660
2020-02-22 02:00 2.59 157 2550 (1975) 35 (1977) 213 47 50 72 79 118 233 262 436 660
2020-02-22 01:00 2.59 157 2550 (1975) 35 (1977) 213 47 50 72 79 118 233 262 436 660
2020-02-22 00:00 2.59 157 2550 (1975) 35 (1977) 213 47 50 72 79 118 233 262 436 660
2020-02-21 23:00 2.59 157 1270 (1945) 35 (1934) 181 49 52 70 80 117 204 245 395 560
2020-02-21 22:00 2.60 158 1270 (1945) 35 (1934) 181 49 52 70 80 117 204 245 395 560
2020-02-21 21:00 2.61 160 1270 (1945) 35 (1934) 181 49 52 70 80 117 204 245 395 560
2020-02-21 20:00 2.60 158 1270 (1945) 35 (1934) 181 49 52 70 80 117 204 245 395 560
2020-02-21 19:00 2.59 157 1270 (1945) 35 (1934) 181 49 52 70 80 117 204 245 395 560
2020-02-21 18:00 2.60 158 1270 (1945) 35 (1934) 181 49 52 70 80 117 204 245 395 560
2020-02-21 17:00 2.59 157 1270 (1945) 35 (1934) 181 49 52 70 80 117 204 245 395 560
2020-02-21 16:00 2.62 162 1270 (1945) 35 (1934) 181 49 52 70 80 117 204 245 395 560
2020-02-21 15:00 2.59 157 1270 (1945) 35 (1934) 181 49 52 70 80 117 204 245 395 560
2020-02-21 14:00 2.60 158 1270 (1945) 35 (1934) 181 49 52 70 80 117 204 245 395 560
2020-02-21 13:00 2.60 158 1270 (1945) 35 (1934) 181 49 52 70 80 117 204 245 395 560
2020-02-21 12:00 2.61 160 1270 (1945) 35 (1934) 181 49 52 70 80 117 204 245 395 560
2020-02-21 11:00 2.60 158 1270 (1945) 35 (1934) 181 49 52 70 80 117 204 245 395 560
2020-02-21 10:00 2.62 162 1270 (1945) 35 (1934) 181 49 52 70 80 117 204 245 395 560
2020-02-21 09:00 2.61 160 1270 (1945) 35 (1934) 181 49 52 70 80 117 204 245 395 560
2020-02-21 08:00 2.61 160 1270 (1945) 35 (1934) 181 49 52 70 80 117 204 245 395 560
2020-02-21 07:00 2.62 162 1270 (1945) 35 (1934) 181 49 52 70 80 117 204 245 395 560
2020-02-21 06:00 2.61 160 1270 (1945) 35 (1934) 181 49 52 70 80 117 204 245 395 560
2020-02-21 05:00 2.63 164 1270 (1945) 35 (1934) 181 49 52 70 80 117 204 245 395 560
2020-02-21 04:00 2.62 162 1270 (1945) 35 (1934) 181 49 52 70 80 117 204 245 395 560
2020-02-21 03:00 2.64 166 1270 (1945) 35 (1934) 181 49 52 70 80 117 204 245 395 560
2020-02-21 02:00 2.63 164 1270 (1945) 35 (1934) 181 49 52 70 80 117 204 245 395 560
2020-02-21 01:00 2.64 166 1270 (1945) 35 (1934) 181 49 52 70 80 117 204 245 395 560
2020-02-21 00:00 2.64 166 1270 (1945) 35 (1934) 181 49 52 70 80 117 204 245 395 560
2020-02-20 23:00 2.64 166 1120 (1955) 36 (1934) 171 50 53 70 79 118 173 202 345 539
2020-02-20 22:00 2.65 168 1120 (1955) 36 (1934) 171 50 53 70 79 118 173 202 345 539
2020-02-20 21:00 2.64 166 1120 (1955) 36 (1934) 171 50 53 70 79 118 173 202 345 539
2020-02-20 20:00 2.66 169 1120 (1955) 36 (1934) 171 50 53 70 79 118 173 202 345 539
2020-02-20 19:00 2.67 171 1120 (1955) 36 (1934) 171 50 53 70 79 118 173 202 345 539
2020-02-20 18:00 2.66 169 1120 (1955) 36 (1934) 171 50 53 70 79 118 173 202 345 539
2020-02-20 17:00 2.66 169 1120 (1955) 36 (1934) 171 50 53 70 79 118 173 202 345 539
2020-02-20 16:00 2.67 171 1120 (1955) 36 (1934) 171 50 53 70 79 118 173 202 345 539
2020-02-20 15:00 2.67 171 1120 (1955) 36 (1934) 171 50 53 70 79 118 173 202 345 539
2020-02-20 14:00 2.69 175 1120 (1955) 36 (1934) 171 50 53 70 79 118 173 202 345 539
2020-02-20 13:00 2.69 175 1120 (1955) 36 (1934) 171 50 53 70 79 118 173 202 345 539
2020-02-20 12:00 2.70 177 1120 (1955) 36 (1934) 171 50 53 70 79 118 173 202 345 539
2020-02-20 11:00 2.69 175 1120 (1955) 36 (1934) 171 50 53 70 79 118 173 202 345 539
2020-02-20 10:00 2.69 175 1120 (1955) 36 (1934) 171 50 53 70 79 118 173 202 345 539
2020-02-20 09:00 2.70 177 1120 (1955) 36 (1934) 171 50 53 70 79 118 173 202 345 539
2020-02-20 08:00 2.71 179 1120 (1955) 36 (1934) 171 50 53 70 79 118 173 202 345 539
2020-02-20 07:00 2.71 179 1120 (1955) 36 (1934) 171 50 53 70 79 118 173 202 345 539
2020-02-20 06:00 2.72 181 1120 (1955) 36 (1934) 171 50 53 70 79 118 173 202 345 539
2020-02-20 05:00 2.72 181 1120 (1955) 36 (1934) 171 50 53 70 79 118 173 202 345 539
2020-02-20 04:00 2.72 181 1120 (1955) 36 (1934) 171 50 53 70 79 118 173 202 345 539
2020-02-20 03:00 2.72 181 1120 (1955) 36 (1934) 171 50 53 70 79 118 173 202 345 539
2020-02-20 02:00 2.73 183 1120 (1955) 36 (1934) 171 50 53 70 79 118 173 202 345 539
2020-02-20 01:00 2.73 183 1120 (1955) 36 (1934) 171 50 53 70 79 118 173 202 345 539
2020-02-20 00:00 2.75 187 1120 (1955) 36 (1934) 171 50 53 70 79 118 173 202 345 539
2020-02-19 23:00 2.74 185 1160 (1974) 37 (1934) 183 48 52 70 80 118 178 197 342 850
2020-02-19 22:00 2.73 183 1160 (1974) 37 (1934) 183 48 52 70 80 118 178 197 342 850
2020-02-19 21:00 2.77 191 1160 (1974) 37 (1934) 183 48 52 70 80 118 178 197 342 850
2020-02-19 20:00 2.76 189 1160 (1974) 37 (1934) 183 48 52 70 80 118 178 197 342 850
2020-02-19 19:00 2.76 189 1160 (1974) 37 (1934) 183 48 52 70 80 118 178 197 342 850
2020-02-19 18:00 2.77 191 1160 (1974) 37 (1934) 183 48 52 70 80 118 178 197 342 850
2020-02-19 17:00 2.77 191 1160 (1974) 37 (1934) 183 48 52 70 80 118 178 197 342 850
2020-02-19 16:00 2.77 191 1160 (1974) 37 (1934) 183 48 52 70 80 118 178 197 342 850
2020-02-19 15:00 2.77 191 1160 (1974) 37 (1934) 183 48 52 70 80 118 178 197 342 850
2020-02-19 14:00 2.78 193 1160 (1974) 37 (1934) 183 48 52 70 80 118 178 197 342 850
2020-02-19 13:00 2.79 195 1160 (1974) 37 (1934) 183 48 52 70 80 118 178 197 342 850
2020-02-19 12:00 2.79 195 1160 (1974) 37 (1934) 183 48 52 70 80 118 178 197 342 850
2020-02-19 11:00 2.79 195 1160 (1974) 37 (1934) 183 48 52 70 80 118 178 197 342 850
2020-02-19 10:00 2.80 197 1160 (1974) 37 (1934) 183 48 52 70 80 118 178 197 342 850
2020-02-19 09:00 2.81 199 1160 (1974) 37 (1934) 183 48 52 70 80 118 178 197 342 850
2020-02-19 08:00 2.81 199 1160 (1974) 37 (1934) 183 48 52 70 80 118 178 197 342 850
2020-02-19 07:00 2.82 201 1160 (1974) 37 (1934) 183 48 52 70 80 118 178 197 342 850
2020-02-19 06:00 2.81 199 1160 (1974) 37 (1934) 183 48 52 70 80 118 178 197 342 850
2020-02-19 05:00 2.82 201 1160 (1974) 37 (1934) 183 48 52 70 80 118 178 197 342 850
2020-02-19 04:00 2.82 201 1160 (1974) 37 (1934) 183 48 52 70 80 118 178 197 342 850
2020-02-19 03:00 2.84 205 1160 (1974) 37 (1934) 183 48 52 70 80 118 178 197 342 850
2020-02-19 02:00 2.85 207 1160 (1974) 37 (1934) 183 48 52 70 80 118 178 197 342 850
2020-02-19 01:00 2.85 207 1160 (1974) 37 (1934) 183 48 52 70 80 118 178 197 342 850
2020-02-19 00:00 2.87 211 1160 (1974) 37 (1934) 183 48 52 70 80 118 178 197 342 850
2020-02-18 23:00 2.87 211 1960 (1938) 40 (1945) 177 48 51 70 79 119 180 199 260 571
2020-02-18 22:00 2.86 209 1960 (1938) 40 (1945) 177 48 51 70 79 119 180 199 260 571
2020-02-18 21:00 2.87 211 1960 (1938) 40 (1945) 177 48 51 70 79 119 180 199 260 571
2020-02-18 20:00 2.88 213 1960 (1938) 40 (1945) 177 48 51 70 79 119 180 199 260 571
2020-02-18 19:00 2.90 218 1960 (1938) 40 (1945) 177 48 51 70 79 119 180 199 260 571
2020-02-18 18:00 2.89 216 1960 (1938) 40 (1945) 177 48 51 70 79 119 180 199 260 571
2020-02-18 17:00 2.90 218 1960 (1938) 40 (1945) 177 48 51 70 79 119 180 199 260 571
2020-02-18 16:00 2.92 222 1960 (1938) 40 (1945) 177 48 51 70 79 119 180 199 260 571
2020-02-18 15:00 2.92 222 1960 (1938) 40 (1945) 177 48 51 70 79 119 180 199 260 571
2020-02-18 14:00 2.93 224 1960 (1938) 40 (1945) 177 48 51 70 79 119 180 199 260 571
2020-02-18 13:00 2.92 222 1960 (1938) 40 (1945) 177 48 51 70 79 119 180 199 260 571
2020-02-18 12:00 2.93 224 1960 (1938) 40 (1945) 177 48 51 70 79 119 180 199 260 571
2020-02-18 11:00 2.96 231 1960 (1938) 40 (1945) 177 48 51 70 79 119 180 199 260 571
2020-02-18 10:00 2.96 231 1960 (1938) 40 (1945) 177 48 51 70 79 119 180 199 260 571
2020-02-18 09:00 2.96 231 1960 (1938) 40 (1945) 177 48 51 70 79 119 180 199 260 571
2020-02-18 08:00 2.98 235 1960 (1938) 40 (1945) 177 48 51 70 79 119 180 199 260 571
2020-02-18 07:00 2.97 233 1960 (1938) 40 (1945) 177 48 51 70 79 119 180 199 260 571
2020-02-18 06:00 3.00 240 1960 (1938) 40 (1945) 177 48 51 70 79 119 180 199 260 571
2020-02-18 05:00 3.00 240 1960 (1938) 40 (1945) 177 48 51 70 79 119 180 199 260 571
2020-02-18 04:00 3.00 240 1960 (1938) 40 (1945) 177 48 51 70 79 119 180 199 260 571
2020-02-18 03:00 3.01 242 1960 (1938) 40 (1945) 177 48 51 70 79 119 180 199 260 571
2020-02-18 02:00 3.01 242 1960 (1938) 40 (1945) 177 48 51 70 79 119 180 199 260 571
2020-02-18 01:00 3.02 244 1960 (1938) 40 (1945) 177 48 51 70 79 119 180 199 260 571
2020-02-18 00:00 3.02 244 1960 (1938) 40 (1945) 177 48 51 70 79 119 180 199 260 571

A total of 185 rows are displayed for years 1929 through 2019.